createdAt,value
2022-07-28T00:01:37.992Z,64.92
2022-07-28T00:04:26.070Z,65.26
2022-07-28T00:07:06.953Z,65.12
2022-07-28T00:10:00.703Z,65.01
2022-07-28T00:12:43.146Z,65.22
2022-07-28T00:15:31.064Z,65.58
2022-07-28T00:18:11.964Z,65.81
2022-07-28T00:21:01.645Z,66.13
2022-07-28T00:23:41.975Z,66.24
2022-07-28T00:26:30.122Z,67.22
2022-07-28T00:29:12.723Z,67.17
2022-07-28T00:32:04.587Z,67.34
2022-07-28T00:34:46.359Z,67.10
2022-07-28T00:37:34.132Z,66.81
2022-07-28T00:40:16.981Z,67.11
2022-07-28T00:43:04.125Z,67.21
2022-07-28T00:45:44.969Z,67.24
2022-07-28T00:48:33.143Z,67.12
2022-07-28T00:51:18.804Z,67.17
2022-07-28T00:54:06.259Z,67.17
2022-07-28T00:56:49.096Z,67.45
2022-07-28T00:59:44.943Z,67.32
2022-07-28T01:02:33.444Z,67.60
2022-07-28T01:05:15.988Z,67.93
2022-07-28T01:08:13.033Z,67.23
2022-07-28T01:11:06.119Z,67.47
2022-07-28T01:14:32.021Z,67.66
2022-07-28T01:17:31.188Z,67.31
2022-07-28T01:20:30.472Z,67.61
2022-07-28T01:23:34.452Z,68.24
2022-07-28T01:27:03.387Z,68.22
2022-07-28T01:30:08.239Z,68.44
2022-07-28T01:33:08.420Z,68.68
2022-07-28T01:35:58.148Z,68.46
2022-07-28T01:38:46.747Z,68.26
2022-07-28T01:41:36.698Z,68.59
2022-07-28T01:44:29.382Z,68.83
2022-07-28T01:47:13.236Z,68.89
2022-07-28T01:50:05.722Z,68.60
2022-07-28T01:52:54.081Z,68.88
2022-07-28T01:55:43.007Z,69.10
2022-07-28T01:58:34.113Z,69.05
2022-07-28T02:01:20.856Z,69.06
2022-07-28T02:04:13.474Z,69.43
2022-07-28T02:06:56.766Z,68.79
2022-07-28T02:09:47.296Z,69.45
2022-07-28T02:12:29.156Z,69.45
2022-07-28T02:15:19.546Z,69.46
2022-07-28T02:18:03.402Z,69.78
2022-07-28T02:20:51.151Z,70.03
2022-07-28T02:23:34.025Z,70.48
2022-07-28T02:26:23.262Z,70.44
2022-07-28T02:29:07.408Z,70.44
2022-07-28T02:31:59.241Z,70.63
2022-07-28T02:34:45.663Z,70.47
2022-07-28T02:37:36.131Z,70.49
2022-07-28T02:40:21.042Z,70.90
2022-07-28T02:43:13.138Z,71.39
2022-07-28T02:45:58.130Z,71.87
2022-07-28T02:48:49.891Z,71.68
2022-07-28T02:51:35.067Z,72.09
2022-07-28T02:54:28.763Z,72.64
2022-07-28T02:57:12.039Z,72.81
2022-07-28T03:00:01.969Z,72.87
2022-07-28T03:02:44.427Z,72.88
2022-07-28T03:05:36.236Z,73.44
2022-07-28T03:08:18.176Z,73.16
2022-07-28T03:11:16.612Z,73.32
2022-07-28T03:13:57.636Z,73.40
2022-07-28T03:16:46.215Z,73.76
2022-07-28T03:19:27.081Z,73.56
2022-07-28T03:22:15.315Z,74.00
2022-07-28T03:25:00.091Z,74.31
2022-07-28T03:27:52.259Z,74.48
2022-07-28T03:30:41.493Z,74.16
2022-07-28T03:33:30.354Z,74.08
2022-07-28T03:36:19.388Z,74.04
2022-07-28T03:39:12.140Z,74.52
2022-07-28T03:41:54.820Z,74.51
2022-07-28T03:44:44.345Z,75.10
2022-07-28T03:47:31.712Z,75.55
2022-07-28T03:50:20.429Z,75.70
2022-07-28T03:53:02.852Z,75.97
2022-07-28T03:55:53.722Z,76.31
2022-07-28T04:01:42.254Z,76.93
2022-07-28T04:04:31.829Z,76.55
2022-07-28T04:07:14.577Z,76.55
2022-07-28T04:10:01.490Z,75.75
2022-07-28T04:12:58.232Z,75.36
2022-07-28T04:15:45.468Z,76.17
2022-07-28T04:18:26.697Z,75.76
2022-07-28T04:21:14.595Z,76.45
2022-07-28T04:23:59.810Z,76.24
2022-07-28T04:26:48.084Z,76.55
2022-07-28T04:29:29.255Z,75.74
2022-07-28T04:32:16.128Z,75.87
2022-07-28T04:34:57.214Z,75.61
2022-07-28T04:37:47.257Z,75.35
2022-07-28T04:40:28.685Z,75.88
2022-07-28T04:43:17.180Z,75.46
2022-07-28T04:45:58.269Z,75.99
2022-07-28T04:48:46.233Z,75.94
2022-07-28T04:51:27.289Z,76.73
2022-07-28T04:54:16.814Z,77.01
2022-07-28T04:56:58.212Z,77.12
2022-07-28T04:59:56.762Z,76.35
2022-07-28T05:02:44.695Z,76.88
2022-07-28T05:05:25.594Z,77.33
2022-07-28T05:08:13.252Z,77.02
2022-07-28T05:10:54.867Z,77.39
2022-07-28T05:13:44.311Z,76.80
2022-07-28T05:16:26.168Z,77.28
2022-07-28T05:19:13.242Z,76.59
2022-07-28T05:21:54.914Z,76.62
2022-07-28T05:24:44.637Z,77.57
2022-07-28T05:27:25.173Z,77.01
2022-07-28T05:30:13.281Z,77.67
2022-07-28T05:32:56.176Z,78.24
2022-07-28T05:35:45.272Z,77.91
2022-07-28T05:38:28.120Z,78.09
2022-07-28T05:41:16.274Z,78.18
2022-07-28T05:43:57.520Z,77.11
2022-07-28T05:46:48.333Z,76.82
2022-07-28T05:49:30.226Z,76.60
2022-07-28T05:52:18.236Z,76.93
2022-07-28T05:54:59.175Z,76.20
2022-07-28T05:57:55.164Z,76.07
2022-07-28T06:00:50.212Z,75.28
2022-07-28T06:03:42.288Z,75.08
2022-07-28T06:06:24.682Z,75.00
2022-07-28T06:09:14.055Z,74.17
2022-07-28T06:11:57.138Z,73.43
2022-07-28T06:14:45.282Z,73.54
2022-07-28T06:17:26.178Z,73.51
2022-07-28T06:20:16.979Z,73.55
2022-07-28T06:23:00.182Z,73.24
2022-07-28T06:25:50.299Z,72.89
2022-07-28T06:28:31.549Z,71.91
2022-07-28T06:31:20.169Z,70.88
2022-07-28T06:34:01.169Z,69.79
2022-07-28T06:36:50.548Z,68.91
2022-07-28T06:39:34.913Z,68.56
2022-07-28T06:42:26.704Z,68.59
2022-07-28T06:45:07.162Z,67.41
2022-07-28T06:47:56.317Z,67.80
2022-07-28T06:50:39.482Z,67.54
2022-07-28T06:53:34.049Z,67.08
2022-07-28T06:56:15.875Z,67.42
2022-07-28T06:59:10.183Z,67.61
2022-07-28T07:01:57.176Z,67.46
2022-07-28T07:04:39.038Z,67.67
2022-07-28T07:07:30.187Z,67.11
2022-07-28T07:10:12.398Z,66.83
2022-07-28T07:13:00.721Z,65.37
2022-07-28T07:15:42.119Z,65.10
2022-07-28T07:18:31.210Z,63.80
2022-07-28T07:21:14.314Z,60.99
2022-07-28T07:24:02.177Z,60.13
2022-07-28T07:26:44.707Z,59.75
2022-07-28T07:29:32.205Z,59.34
2022-07-28T07:32:14.333Z,58.71
2022-07-28T07:35:02.218Z,58.28
2022-07-28T07:37:43.767Z,58.28
2022-07-28T07:40:44.966Z,58.56
2022-07-28T07:43:35.013Z,56.53
2022-07-28T07:46:15.737Z,56.47
2022-07-28T07:49:05.164Z,56.51
2022-07-28T07:51:46.847Z,57.45
2022-07-28T07:54:34.856Z,56.81
2022-07-28T07:57:16.745Z,56.00
2022-07-28T08:00:03.873Z,54.46
2022-07-28T08:02:48.767Z,52.15
2022-07-28T08:05:36.444Z,49.51
2022-07-28T08:08:20.020Z,47.58
2022-07-28T08:11:08.368Z,46.26
2022-07-28T08:13:49.710Z,45.46
2022-07-28T08:16:40.960Z,44.06
2022-07-28T08:19:21.858Z,43.25
2022-07-28T08:22:08.869Z,42.34
2022-07-28T08:24:49.733Z,40.51
2022-07-28T08:27:40.103Z,39.20
2022-07-28T08:30:30.294Z,37.17
2022-07-28T08:33:22.971Z,34.76
2022-07-28T08:36:04.895Z,33.99
2022-07-28T08:39:00.706Z,33.71
2022-07-28T08:41:49.262Z,34.16
2022-07-28T08:44:36.402Z,32.97
2022-07-28T08:47:23.561Z,32.46
2022-07-28T08:50:05.880Z,33.13
2022-07-28T08:52:56.749Z,32.16
2022-07-28T08:55:42.910Z,31.65
2022-07-28T08:58:31.292Z,31.09
2022-07-28T09:01:13.943Z,31.35
2022-07-28T09:04:06.088Z,32.02
2022-07-28T09:06:48.281Z,31.69
2022-07-28T09:09:35.791Z,32.19
2022-07-28T09:12:17.060Z,31.34
2022-07-28T09:15:04.919Z,30.91
2022-07-28T09:17:49.181Z,31.30
2022-07-28T09:20:38.770Z,30.63
2022-07-28T09:23:42.158Z,31.09
2022-07-28T09:26:29.786Z,30.16
2022-07-28T09:29:11.461Z,29.46
2022-07-28T09:35:02.899Z,29.68
2022-07-28T09:37:53.546Z,28.05
2022-07-28T09:40:44.546Z,28.19
2022-07-28T09:43:38.041Z,28.01
2022-07-28T09:46:33.022Z,27.06
2022-07-28T09:49:15.620Z,26.48
2022-07-28T09:52:10.334Z,26.14
2022-07-28T09:55:13.790Z,25.70
2022-07-28T09:58:01.910Z,25.94
2022-07-28T10:00:45.520Z,24.73
2022-07-28T10:03:34.392Z,24.75
2022-07-28T10:06:23.923Z,24.80
2022-07-28T10:09:14.491Z,25.23
2022-07-28T10:11:55.816Z,25.44
2022-07-28T10:14:46.482Z,25.91
2022-07-28T10:17:40.817Z,27.68
2022-07-28T10:20:30.027Z,27.41
2022-07-28T10:23:13.910Z,28.34
2022-07-28T10:26:13.052Z,31.34
2022-07-28T10:28:59.265Z,32.14
2022-07-28T10:31:57.508Z,32.53
2022-07-28T10:34:46.201Z,32.46
2022-07-28T10:37:35.079Z,32.98
2022-07-28T10:40:25.189Z,33.55
2022-07-28T10:43:06.920Z,33.42
2022-07-28T10:46:06.130Z,32.17
2022-07-28T10:48:51.143Z,30.21
2022-07-28T10:51:59.797Z,30.05
2022-07-28T10:55:21.944Z,28.87
2022-07-28T10:58:28.360Z,29.27
2022-07-28T11:01:17.134Z,31.25
2022-07-28T11:04:48.070Z,31.33
2022-07-28T11:07:29.134Z,30.85
2022-07-28T11:10:23.814Z,30.31
2022-07-28T11:13:05.964Z,29.83
2022-07-28T11:16:05.209Z,29.54
2022-07-28T11:19:36.919Z,30.04
2022-07-28T11:22:24.297Z,30.38
2022-07-28T11:25:20.978Z,30.59
2022-07-28T11:28:12.758Z,30.04
2022-07-28T11:30:55.274Z,30.27
2022-07-28T11:34:04.982Z,30.37
2022-07-28T11:37:15.156Z,30.14
2022-07-28T11:40:46.256Z,30.41
2022-07-28T11:43:37.765Z,30.99
2022-07-28T11:46:21.887Z,30.98
2022-07-28T11:49:30.073Z,30.67
2022-07-28T11:52:22.625Z,29.87
2022-07-28T11:55:12.938Z,29.94
2022-07-28T11:57:55.015Z,29.71
2022-07-28T12:00:42.419Z,30.17
2022-07-28T12:03:54.015Z,30.63
2022-07-28T12:06:49.542Z,31.19
2022-07-28T12:09:42.453Z,30.34
2022-07-28T12:12:31.604Z,30.17
2022-07-28T12:15:13.976Z,29.20
2022-07-28T12:18:03.029Z,29.09
2022-07-28T12:20:52.240Z,29.40
2022-07-28T12:23:45.465Z,29.72
2022-07-28T12:26:49.208Z,30.61
2022-07-28T12:29:37.995Z,30.32
2022-07-28T12:32:20.886Z,29.79
2022-07-28T12:35:10.169Z,29.22
2022-07-28T12:37:55.259Z,28.66
2022-07-28T12:40:46.465Z,29.26
2022-07-28T12:43:28.888Z,29.32
2022-07-28T12:46:17.094Z,28.97
2022-07-28T12:48:59.247Z,29.06
2022-07-28T12:51:49.005Z,29.28
2022-07-28T12:54:53.721Z,28.96
2022-07-28T12:57:52.927Z,28.98
2022-07-28T13:00:41.993Z,29.38
2022-07-28T13:03:37.705Z,29.21
2022-07-28T13:06:20.690Z,29.13
2022-07-28T13:09:15.118Z,29.19
2022-07-28T13:11:55.991Z,28.85
2022-07-28T13:14:52.367Z,28.97
2022-07-28T13:17:40.916Z,29.63
2022-07-28T13:20:28.720Z,29.95
2022-07-28T13:23:12.903Z,29.68
2022-07-28T13:26:02.050Z,30.09
2022-07-28T13:28:42.915Z,30.11
2022-07-28T13:31:32.417Z,30.28
2022-07-28T13:34:16.295Z,29.77
2022-07-28T13:37:05.029Z,29.40
2022-07-28T13:39:59.192Z,28.96
2022-07-28T13:42:52.783Z,28.69
2022-07-28T13:45:34.390Z,27.98
2022-07-28T13:48:24.087Z,27.11
2022-07-28T13:51:07.717Z,27.39
2022-07-28T13:53:56.585Z,29.43
2022-07-28T13:56:44.947Z,30.13
2022-07-28T13:59:35.486Z,31.23
2022-07-28T14:02:18.945Z,30.91
2022-07-28T14:05:13.020Z,31.15
2022-07-28T14:07:55.525Z,31.80
2022-07-28T14:10:56.335Z,32.02
2022-07-28T14:13:38.225Z,32.01
2022-07-28T14:16:32.244Z,31.94
2022-07-28T14:19:13.318Z,32.09
2022-07-28T14:22:13.154Z,32.21
2022-07-28T14:24:57.995Z,32.38
2022-07-28T14:27:45.882Z,31.89
2022-07-28T14:30:28.353Z,31.49
2022-07-28T14:33:16.076Z,31.24
2022-07-28T14:35:56.947Z,31.34
2022-07-28T14:38:53.708Z,31.48
2022-07-28T14:41:40.970Z,31.93
2022-07-28T14:44:24.249Z,32.03
2022-07-28T14:47:18.172Z,33.59
2022-07-28T14:50:00.271Z,35.93
2022-07-28T14:52:49.100Z,36.48
2022-07-28T14:55:30.536Z,36.41
2022-07-28T14:58:19.585Z,36.16
2022-07-28T15:01:01.372Z,36.92
2022-07-28T15:03:47.952Z,37.25
2022-07-28T15:06:29.113Z,37.22
2022-07-28T15:09:18.087Z,37.56
2022-07-28T15:11:59.351Z,37.40
2022-07-28T15:14:46.005Z,37.46
2022-07-28T15:17:27.157Z,37.41
2022-07-28T15:20:17.399Z,38.12
2022-07-28T15:22:58.869Z,37.38
2022-07-28T15:25:49.418Z,37.14
2022-07-28T15:28:30.171Z,37.35
2022-07-28T15:31:20.758Z,38.00
2022-07-28T15:34:02.503Z,38.26
2022-07-28T15:36:50.353Z,38.28
2022-07-28T15:39:45.382Z,38.47
2022-07-28T15:42:34.378Z,38.64
2022-07-28T15:45:15.143Z,38.58
2022-07-28T15:48:03.120Z,38.33
2022-07-28T15:50:45.590Z,37.97
2022-07-28T15:53:35.091Z,38.37
2022-07-28T15:56:17.620Z,38.64
2022-07-28T15:59:06.123Z,38.98
2022-07-28T16:01:47.211Z,38.76
2022-07-28T16:04:48.436Z,39.31
2022-07-28T16:07:39.533Z,39.17
2022-07-28T16:10:33.011Z,39.46
2022-07-28T16:13:14.944Z,38.81
2022-07-28T16:16:04.442Z,39.53
2022-07-28T16:18:48.288Z,39.35
2022-07-28T16:21:36.022Z,39.46
2022-07-28T16:24:17.638Z,39.57
2022-07-28T16:27:05.093Z,39.52
2022-07-28T16:29:46.216Z,39.24
2022-07-28T16:32:34.782Z,39.32
2022-07-28T16:35:16.173Z,39.08
2022-07-28T16:38:04.398Z,39.20
2022-07-28T16:40:58.028Z,39.34
2022-07-28T16:43:46.135Z,39.39
2022-07-28T16:46:27.187Z,39.42
2022-07-28T16:49:15.101Z,39.49
2022-07-28T16:51:56.300Z,39.72
2022-07-28T16:54:44.048Z,39.73
2022-07-28T16:57:26.170Z,39.89
2022-07-28T17:00:17.049Z,40.30
2022-07-28T17:02:58.608Z,40.68
2022-07-28T17:05:45.041Z,40.83
2022-07-28T17:08:27.141Z,40.95
2022-07-28T17:11:15.045Z,41.67
2022-07-28T17:13:56.218Z,41.52
2022-07-28T17:16:44.070Z,41.54
2022-07-28T17:19:25.133Z,42.22
2022-07-28T17:22:14.057Z,42.30
2022-07-28T17:24:56.643Z,42.09
2022-07-28T17:27:47.869Z,42.96
2022-07-28T17:30:30.467Z,42.93
2022-07-28T17:33:19.074Z,43.57
2022-07-28T17:36:01.438Z,43.55
2022-07-28T17:38:49.078Z,43.85
2022-07-28T17:41:37.216Z,44.03
2022-07-28T17:44:18.457Z,44.48
2022-07-28T17:47:09.298Z,44.46
2022-07-28T17:49:51.592Z,44.32
2022-07-28T17:52:41.255Z,44.82
2022-07-28T17:56:00.373Z,44.90
2022-07-28T17:58:49.983Z,45.41
2022-07-28T18:01:31.474Z,45.73
2022-07-28T18:04:21.187Z,45.67
2022-07-28T18:07:02.835Z,46.29
2022-07-28T18:09:50.235Z,46.60
2022-07-28T18:12:31.089Z,46.78
2022-07-28T18:15:18.794Z,47.04
2022-07-28T18:18:01.851Z,47.26
2022-07-28T18:20:50.456Z,47.11
2022-07-28T18:23:34.000Z,47.03
2022-07-28T18:26:21.287Z,46.97
2022-07-28T18:29:02.858Z,46.65
2022-07-28T18:31:53.349Z,46.80
2022-07-28T18:34:35.111Z,45.68
2022-07-28T18:37:22.342Z,45.57
2022-07-28T18:40:18.129Z,45.19
2022-07-28T18:43:12.849Z,45.51
2022-07-28T18:45:54.605Z,45.27
2022-07-28T18:48:43.286Z,45.35
2022-07-28T18:51:25.666Z,46.13
2022-07-28T18:54:23.233Z,45.36
2022-07-28T18:57:08.437Z,44.94
2022-07-28T18:59:55.231Z,45.17
2022-07-28T19:02:37.174Z,44.99
2022-07-28T19:05:37.022Z,44.83
2022-07-28T19:08:18.497Z,45.24
2022-07-28T19:11:06.225Z,45.57
2022-07-28T19:13:47.515Z,45.52
2022-07-28T19:16:36.120Z,45.72
2022-07-28T19:19:17.887Z,45.96
2022-07-28T19:22:06.517Z,46.55
2022-07-28T19:24:47.113Z,46.47
2022-07-28T19:27:36.376Z,46.75
2022-07-28T19:30:17.234Z,47.20
2022-07-28T19:33:04.334Z,47.42
2022-07-28T19:35:47.413Z,47.96
2022-07-28T19:38:38.217Z,47.55
2022-07-28T19:41:26.549Z,47.91
2022-07-28T19:44:08.283Z,48.24
2022-07-28T19:46:56.162Z,47.72
2022-07-28T19:49:41.882Z,48.11
2022-07-28T19:52:31.577Z,47.91
2022-07-28T19:55:17.594Z,47.46
2022-07-28T19:58:08.535Z,47.85
2022-07-28T20:00:50.310Z,47.58
2022-07-28T20:04:01.334Z,47.90
2022-07-28T20:06:43.258Z,47.23
2022-07-28T20:09:30.893Z,47.04
2022-07-28T20:12:12.729Z,47.87
2022-07-28T20:15:00.528Z,48.21
2022-07-28T20:17:42.348Z,48.88
2022-07-28T20:20:30.576Z,49.20
2022-07-28T20:23:12.821Z,49.13
2022-07-28T20:26:00.306Z,48.39
2022-07-28T20:28:45.354Z,48.16
2022-07-28T20:31:32.974Z,48.33
2022-07-28T20:34:15.430Z,48.63
2022-07-28T20:37:04.479Z,48.99
2022-07-28T20:39:47.456Z,48.95
2022-07-28T20:42:41.975Z,49.81
2022-07-28T20:45:31.778Z,49.60
2022-07-28T20:48:14.566Z,49.35
2022-07-28T20:51:02.322Z,50.23
2022-07-28T20:53:44.772Z,50.21
2022-07-28T20:56:33.355Z,50.42
2022-07-28T20:59:15.028Z,49.98
2022-07-28T21:02:05.514Z,50.19
2022-07-28T21:04:46.230Z,50.03
2022-07-28T21:08:05.379Z,50.50
2022-07-28T21:10:43.420Z,50.18
2022-07-28T21:13:30.311Z,50.40
2022-07-28T21:16:11.699Z,50.67
2022-07-28T21:19:02.181Z,51.13
2022-07-28T21:21:43.178Z,51.55
2022-07-28T21:24:31.292Z,51.67
2022-07-28T21:27:13.089Z,51.65
2022-07-28T21:30:03.563Z,51.59
2022-07-28T21:32:44.595Z,52.42
2022-07-28T21:35:32.293Z,52.65
2022-07-28T21:38:13.214Z,53.53
2022-07-28T21:41:08.201Z,53.20
2022-07-28T21:44:04.083Z,53.35
2022-07-28T21:46:45.860Z,54.06
2022-07-28T21:49:37.591Z,54.03
2022-07-28T21:52:18.743Z,54.13
2022-07-28T21:55:07.216Z,54.41
2022-07-28T21:57:49.558Z,54.98
2022-07-28T22:00:42.258Z,55.02
2022-07-28T22:03:24.652Z,55.40
2022-07-28T22:06:11.226Z,55.51
2022-07-28T22:08:56.489Z,56.15
2022-07-28T22:11:45.311Z,56.51
2022-07-28T22:14:32.289Z,56.62
2022-07-28T22:17:21.031Z,57.13
2022-07-28T22:20:02.319Z,57.32
2022-07-28T22:22:49.622Z,57.63
2022-07-28T22:25:32.129Z,57.51
2022-07-28T22:28:19.247Z,57.93
2022-07-28T22:31:13.501Z,58.96
2022-07-28T22:34:01.205Z,59.32
2022-07-28T22:36:42.869Z,59.08
2022-07-28T22:39:31.814Z,59.74
2022-07-28T22:42:18.522Z,59.55
2022-07-28T22:48:10.887Z,60.46
2022-07-28T22:50:53.250Z,60.86
2022-07-28T22:53:40.358Z,61.26
2022-07-28T22:56:22.277Z,61.00
2022-07-28T22:59:10.140Z,61.56
2022-07-28T23:01:53.315Z,61.79
2022-07-28T23:04:40.414Z,62.46
2022-07-28T23:07:50.626Z,62.86
2022-07-28T23:10:31.148Z,63.38
2022-07-28T23:13:12.619Z,63.93
2022-07-28T23:16:01.375Z,65.10
2022-07-28T23:18:47.391Z,65.78
2022-07-28T23:21:36.717Z,66.34
2022-07-28T23:24:19.163Z,66.42
2022-07-28T23:27:09.088Z,67.54
2022-07-28T23:29:52.467Z,67.76
2022-07-28T23:32:39.965Z,68.77
2022-07-28T23:35:22.593Z,69.43
2022-07-28T23:38:10.383Z,69.59
2022-07-28T23:41:04.318Z,69.82
2022-07-28T23:43:53.555Z,70.08
2022-07-28T23:46:35.112Z,70.64
2022-07-28T23:49:22.600Z,70.37
2022-07-28T23:52:03.256Z,71.16
2022-07-28T23:54:52.910Z,70.91
2022-07-28T23:57:33.291Z,70.51
